sensor_id;sensor_type;location;lat;lon;timestamp;temperature;humidity
52439;DHT22;38359;53.150;6.504;2023-01-09T00:09:43;7.50;99.90
52439;DHT22;38359;53.150;6.504;2023-01-09T00:20:09;7.60;99.90
52439;DHT22;38359;53.150;6.504;2023-01-09T00:30:35;7.20;99.90
52439;DHT22;38359;53.150;6.504;2023-01-09T00:41:01;7.00;99.90
52439;DHT22;38359;53.150;6.504;2023-01-09T00:51:28;7.10;99.90
52439;DHT22;38359;53.150;6.504;2023-01-09T01:01:54;6.80;99.90
52439;DHT22;38359;53.150;6.504;2023-01-09T01:12:20;6.70;99.90
52439;DHT22;38359;53.150;6.504;2023-01-09T01:22:46;6.50;99.90
52439;DHT22;38359;53.150;6.504;2023-01-09T01:33:12;6.40;99.90
52439;DHT22;38359;53.150;6.504;2023-01-09T01:43:54;6.00;99.90
52439;DHT22;38359;53.150;6.504;2023-01-09T01:54:24;7.00;99.90
52439;DHT22;38359;53.150;6.504;2023-01-09T02:04:52;7.20;99.90
52439;DHT22;38359;53.150;6.504;2023-01-09T02:15:20;7.10;99.90
52439;DHT22;38359;53.150;6.504;2023-01-09T02:36:59;7.00;99.90
52439;DHT22;38359;53.150;6.504;2023-01-09T03:09:37;6.40;99.90
52439;DHT22;38359;53.150;6.504;2023-01-09T03:19:47;6.20;99.90
52439;DHT22;38359;53.150;6.504;2023-01-09T03:30:14;6.00;99.90
52439;DHT22;38359;53.150;6.504;2023-01-09T03:40:41;6.10;99.90
52439;DHT22;38359;53.150;6.504;2023-01-09T03:51:08;5.90;99.90
52439;DHT22;38359;53.150;6.504;2023-01-09T04:01:34;5.90;99.90
52439;DHT22;38359;53.150;6.504;2023-01-09T04:12:01;6.00;99.90
52439;DHT22;38359;53.150;6.504;2023-01-09T04:22:27;5.50;99.90
52439;DHT22;38359;53.150;6.504;2023-01-09T04:32:55;5.50;99.90
52439;DHT22;38359;53.150;6.504;2023-01-09T04:43:21;5.40;99.90
52439;DHT22;38359;53.150;6.504;2023-01-09T04:53:47;5.40;99.90
52439;DHT22;38359;53.150;6.504;2023-01-09T05:04:12;5.30;99.90
52439;DHT22;38359;53.150;6.504;2023-01-09T05:14:38;5.40;99.90
52439;DHT22;38359;53.150;6.504;2023-01-09T05:25:04;5.50;99.90
52439;DHT22;38359;53.150;6.504;2023-01-09T05:35:30;5.30;99.90
52439;DHT22;38359;53.150;6.504;2023-01-09T05:45:56;5.70;99.90
52439;DHT22;38359;53.150;6.504;2023-01-09T05:56:22;5.90;99.90
52439;DHT22;38359;53.150;6.504;2023-01-09T06:06:48;5.80;99.90
52439;DHT22;38359;53.150;6.504;2023-01-09T06:17:14;6.00;99.90
52439;DHT22;38359;53.150;6.504;2023-01-09T06:27:39;6.00;99.90
52439;DHT22;38359;53.150;6.504;2023-01-09T06:38:07;6.10;99.90
52439;DHT22;38359;53.150;6.504;2023-01-09T06:48:32;5.90;99.90
52439;DHT22;38359;53.150;6.504;2023-01-09T06:58:58;6.10;99.90
52439;DHT22;38359;53.150;6.504;2023-01-09T07:09:25;5.70;99.90
52439;DHT22;38359;53.150;6.504;2023-01-09T07:19:51;5.60;99.90
52439;DHT22;38359;53.150;6.504;2023-01-09T07:30:17;5.90;99.90
52439;DHT22;38359;53.150;6.504;2023-01-09T07:40:49;5.80;99.90
52439;DHT22;38359;53.150;6.504;2023-01-09T07:51:14;5.60;99.90
52439;DHT22;38359;53.150;6.504;2023-01-09T08:01:40;5.50;99.90
52439;DHT22;38359;53.150;6.504;2023-01-09T08:12:06;5.50;99.90
52439;DHT22;38359;53.150;6.504;2023-01-09T08:22:32;5.40;99.90
52439;DHT22;38359;53.150;6.504;2023-01-09T08:33:02;5.70;99.90
52439;DHT22;38359;53.150;6.504;2023-01-09T08:43:28;5.60;99.90
52439;DHT22;38359;53.150;6.504;2023-01-09T08:54:12;6.00;99.90
52439;DHT22;38359;53.150;6.504;2023-01-09T09:04:38;6.10;99.90
52439;DHT22;38359;53.150;6.504;2023-01-09T09:15:05;6.20;99.90
52439;DHT22;38359;53.150;6.504;2023-01-09T09:25:37;6.20;99.90
52439;DHT22;38359;53.150;6.504;2023-01-09T09:36:03;6.40;99.90
52439;DHT22;38359;53.150;6.504;2023-01-09T09:46:41;6.40;99.90
52439;DHT22;38359;53.150;6.504;2023-01-09T09:57:15;6.40;99.90
52439;DHT22;38359;53.150;6.504;2023-01-09T10:07:49;6.80;99.90
52439;DHT22;38359;53.150;6.504;2023-01-09T10:18:33;6.60;99.90
52439;DHT22;38359;53.150;6.504;2023-01-09T10:40:15;7.00;99.90
52439;DHT22;38359;53.150;6.504;2023-01-09T10:50:50;6.90;99.90
52439;DHT22;38359;53.150;6.504;2023-01-09T11:01:33;7.10;99.90
52439;DHT22;38359;53.150;6.504;2023-01-09T11:12:22;7.30;99.90
52439;DHT22;38359;53.150;6.504;2023-01-09T11:22:51;7.20;99.90
52439;DHT22;38359;53.150;6.504;2023-01-09T11:33:22;6.90;99.90
52439;DHT22;38359;53.150;6.504;2023-01-09T11:43:51;7.00;99.90
52439;DHT22;38359;53.150;6.504;2023-01-09T11:54:30;7.10;99.90
52439;DHT22;38359;53.150;6.504;2023-01-09T12:05:18;7.20;99.90
52439;DHT22;38359;53.150;6.504;2023-01-09T12:16:46;7.20;99.90
52439;DHT22;38359;53.150;6.504;2023-01-09T13:20:55;7.30;99.90
52439;DHT22;38359;53.150;6.504;2023-01-09T13:42:25;7.50;99.90
52439;DHT22;38359;53.150;6.504;2023-01-09T14:14:34;7.60;99.90
52439;DHT22;38359;53.150;6.504;2023-01-09T14:25:12;7.70;99.90
52439;DHT22;38359;53.150;6.504;2023-01-09T14:46:41;7.70;99.90
52439;DHT22;38359;53.150;6.504;2023-01-09T14:57:27;7.90;99.90
52439;DHT22;38359;53.150;6.504;2023-01-09T15:08:02;7.80;99.90
52439;DHT22;38359;53.150;6.504;2023-01-09T15:18:31;8.00;99.90
52439;DHT22;38359;53.150;6.504;2023-01-09T15:29:14;7.90;99.90
52439;DHT22;38359;53.150;6.504;2023-01-09T15:39:41;7.90;99.90
52439;DHT22;38359;53.150;6.504;2023-01-09T15:50:12;7.60;99.90
52439;DHT22;38359;53.150;6.504;2023-01-09T16:00:41;7.50;99.90
52439;DHT22;38359;53.150;6.504;2023-01-09T16:11:21;7.50;99.90
52439;DHT22;38359;53.150;6.504;2023-01-09T16:21:59;7.00;99.90
52439;DHT22;38359;53.150;6.504;2023-01-09T16:32:31;7.20;99.90
52439;DHT22;38359;53.150;6.504;2023-01-09T16:42:59;7.10;99.90
52439;DHT22;38359;53.150;6.504;2023-01-09T16:53:25;7.00;99.90
52439;DHT22;38359;53.150;6.504;2023-01-09T17:03:52;7.10;99.90
52439;DHT22;38359;53.150;6.504;2023-01-09T17:14:18;6.90;99.90
52439;DHT22;38359;53.150;6.504;2023-01-09T17:24:44;6.90;99.90
52439;DHT22;38359;53.150;6.504;2023-01-09T17:35:28;6.90;99.90
52439;DHT22;38359;53.150;6.504;2023-01-09T17:45:54;6.80;99.90
52439;DHT22;38359;53.150;6.504;2023-01-09T17:56:27;6.60;99.90
52439;DHT22;38359;53.150;6.504;2023-01-09T18:06:54;6.70;99.90
52439;DHT22;38359;53.150;6.504;2023-01-09T18:17:19;6.70;99.90
52439;DHT22;38359;53.150;6.504;2023-01-09T18:27:45;6.90;99.90
52439;DHT22;38359;53.150;6.504;2023-01-09T18:38:11;6.80;99.90
52439;DHT22;38359;53.150;6.504;2023-01-09T18:48:38;6.50;99.90
52439;DHT22;38359;53.150;6.504;2023-01-09T18:59:04;6.50;99.90
52439;DHT22;38359;53.150;6.504;2023-01-09T19:09:30;6.40;99.90
52439;DHT22;38359;53.150;6.504;2023-01-09T19:19:55;7.10;99.90
52439;DHT22;38359;53.150;6.504;2023-01-09T19:30:21;6.10;99.90
52439;DHT22;38359;53.150;6.504;2023-01-09T19:40:48;6.10;99.90
52439;DHT22;38359;53.150;6.504;2023-01-09T19:51:16;6.10;99.90
52439;DHT22;38359;53.150;6.504;2023-01-09T20:01:42;6.00;99.90
52439;DHT22;38359;53.150;6.504;2023-01-09T20:12:09;6.10;99.90
52439;DHT22;38359;53.150;6.504;2023-01-09T20:22:35;5.90;99.90
52439;DHT22;38359;53.150;6.504;2023-01-09T20:33:01;6.20;99.90
52439;DHT22;38359;53.150;6.504;2023-01-09T20:43:27;6.10;99.90
52439;DHT22;38359;53.150;6.504;2023-01-09T20:53:52;6.00;99.90
52439;DHT22;38359;53.150;6.504;2023-01-09T21:04:20;6.20;99.90
52439;DHT22;38359;53.150;6.504;2023-01-09T21:14:52;6.20;99.90
52439;DHT22;38359;53.150;6.504;2023-01-09T21:25:19;6.10;99.90
52439;DHT22;38359;53.150;6.504;2023-01-09T21:35:53;5.60;99.90
52439;DHT22;38359;53.150;6.504;2023-01-09T21:46:20;5.70;99.90
52439;DHT22;38359;53.150;6.504;2023-01-09T21:57:04;5.50;99.90
52439;DHT22;38359;53.150;6.504;2023-01-09T22:07:30;5.40;99.90
52439;DHT22;38359;53.150;6.504;2023-01-09T22:17:56;5.30;99.90
52439;DHT22;38359;53.150;6.504;2023-01-09T22:28:23;5.40;99.90
52439;DHT22;38359;53.150;6.504;2023-01-09T22:38:52;5.40;99.90
52439;DHT22;38359;53.150;6.504;2023-01-09T22:49:19;5.80;99.90
52439;DHT22;38359;53.150;6.504;2023-01-09T22:59:44;5.90;99.90
52439;DHT22;38359;53.150;6.504;2023-01-09T23:10:10;5.70;99.90
52439;DHT22;38359;53.150;6.504;2023-01-09T23:20:36;5.00;99.90
52439;DHT22;38359;53.150;6.504;2023-01-09T23:31:05;5.80;99.90
52439;DHT22;38359;53.150;6.504;2023-01-09T23:41:31;5.60;99.90
52439;DHT22;38359;53.150;6.504;2023-01-09T23:52:15;5.60;99.90
